sensor_id;sensor_type;location;lat;lon;timestamp;P1;durP1;ratioP1;P2;durP2;ratioP2
68140;SDS011;54941;52.220;104.306;2023-09-07T00:01:16;5.45;;;3.35;;
68140;SDS011;54941;52.220;104.306;2023-09-07T00:03:42;6.85;;;3.40;;
68140;SDS011;54941;52.220;104.306;2023-09-07T00:06:09;4.57;;;2.90;;
68140;SDS011;54941;52.220;104.306;2023-09-07T00:08:35;5.25;;;3.08;;
68140;SDS011;54941;52.220;104.306;2023-09-07T00:11:06;5.32;;;3.45;;
68140;SDS011;54941;52.220;104.306;2023-09-07T00:13:33;4.25;;;2.75;;
68140;SDS011;54941;52.220;104.306;2023-09-07T00:16:00;5.30;;;2.70;;
68140;SDS011;54941;52.220;104.306;2023-09-07T00:18:27;4.75;;;2.63;;
68140;SDS011;54941;52.220;104.306;2023-09-07T00:20:53;4.85;;;2.70;;
68140;SDS011;54941;52.220;104.306;2023-09-07T00:23:20;3.72;;;2.42;;
68140;SDS011;54941;52.220;104.306;2023-09-07T00:25:46;5.05;;;2.50;;
68140;SDS011;54941;52.220;104.306;2023-09-07T00:28:14;4.07;;;2.17;;
68140;SDS011;54941;52.220;104.306;2023-09-07T00:30:40;3.95;;;2.20;;
68140;SDS011;54941;52.220;104.306;2023-09-07T00:33:07;3.15;;;1.98;;
68140;SDS011;54941;52.220;104.306;2023-09-07T00:35:33;3.70;;;2.17;;
68140;SDS011;54941;52.220;104.306;2023-09-07T00:38:00;3.45;;;2.10;;
68140;SDS011;54941;52.220;104.306;2023-09-07T00:40:27;4.97;;;2.20;;
68140;SDS011;54941;52.220;104.306;2023-09-07T00:42:53;5.45;;;2.40;;
68140;SDS011;54941;52.220;104.306;2023-09-07T00:45:21;5.03;;;2.42;;
68140;SDS011;54941;52.220;104.306;2023-09-07T00:47:47;4.03;;;2.17;;
68140;SDS011;54941;52.220;104.306;2023-09-07T00:50:14;3.35;;;1.98;;
68140;SDS011;54941;52.220;104.306;2023-09-07T00:52:40;3.78;;;2.00;;
68140;SDS011;54941;52.220;104.306;2023-09-07T00:55:08;3.22;;;1.88;;
68140;SDS011;54941;52.220;104.306;2023-09-07T00:57:35;3.50;;;2.10;;
68140;SDS011;54941;52.220;104.306;2023-09-07T01:00:02;2.83;;;1.90;;
68140;SDS011;54941;52.220;104.306;2023-09-07T01:02:32;3.30;;;2.05;;
68140;SDS011;54941;52.220;104.306;2023-09-07T01:04:59;4.13;;;1.90;;
68140;SDS011;54941;52.220;104.306;2023-09-07T01:07:29;3.38;;;2.10;;
68140;SDS011;54941;52.220;104.306;2023-09-07T01:09:59;3.05;;;2.20;;
68140;SDS011;54941;52.220;104.306;2023-09-07T01:12:30;4.78;;;2.05;;
68140;SDS011;54941;52.220;104.306;2023-09-07T01:14:56;3.97;;;2.03;;
68140;SDS011;54941;52.220;104.306;2023-09-07T01:17:23;3.60;;;2.30;;
68140;SDS011;54941;52.220;104.306;2023-09-07T01:19:51;4.63;;;2.30;;
68140;SDS011;54941;52.220;104.306;2023-09-07T01:22:20;3.90;;;2.20;;
68140;SDS011;54941;52.220;104.306;2023-09-07T01:24:47;4.05;;;2.50;;
68140;SDS011;54941;52.220;104.306;2023-09-07T01:27:16;3.88;;;2.28;;
68140;SDS011;54941;52.220;104.306;2023-09-07T01:29:42;4.07;;;2.10;;
68140;SDS011;54941;52.220;104.306;2023-09-07T01:32:08;4.00;;;2.28;;
68140;SDS011;54941;52.220;104.306;2023-09-07T01:34:34;4.75;;;2.40;;
68140;SDS011;54941;52.220;104.306;2023-09-07T01:37:01;3.85;;;2.20;;
68140;SDS011;54941;52.220;104.306;2023-09-07T01:39:29;3.53;;;1.98;;
68140;SDS011;54941;52.220;104.306;2023-09-07T01:41:55;6.38;;;2.60;;
68140;SDS011;54941;52.220;104.306;2023-09-07T01:44:21;3.50;;;2.38;;
68140;SDS011;54941;52.220;104.306;2023-09-07T01:46:48;4.50;;;2.10;;
68140;SDS011;54941;52.220;104.306;2023-09-07T01:49:14;5.60;;;2.03;;
68140;SDS011;54941;52.220;104.306;2023-09-07T01:51:40;4.05;;;2.03;;
68140;SDS011;54941;52.220;104.306;2023-09-07T01:54:06;4.07;;;2.20;;
68140;SDS011;54941;52.220;104.306;2023-09-07T01:56:34;3.55;;;2.28;;
68140;SDS011;54941;52.220;104.306;2023-09-07T01:59:00;2.83;;;2.03;;
68140;SDS011;54941;52.220;104.306;2023-09-07T02:01:27;3.85;;;2.10;;
68140;SDS011;54941;52.220;104.306;2023-09-07T02:03:56;7.90;;;2.38;;
68140;SDS011;54941;52.220;104.306;2023-09-07T02:06:22;3.33;;;2.10;;
68140;SDS011;54941;52.220;104.306;2023-09-07T02:08:49;2.88;;;1.90;;
68140;SDS011;54941;52.220;104.306;2023-09-07T02:11:15;3.15;;;2.00;;
68140;SDS011;54941;52.220;104.306;2023-09-07T02:13:44;4.82;;;2.53;;
68140;SDS011;54941;52.220;104.306;2023-09-07T02:16:12;3.92;;;2.40;;
68140;SDS011;54941;52.220;104.306;2023-09-07T02:18:38;2.80;;;1.83;;
68140;SDS011;54941;52.220;104.306;2023-09-07T02:21:24;3.88;;;2.13;;
68140;SDS011;54941;52.220;104.306;2023-09-07T02:23:51;4.65;;;2.60;;
68140;SDS011;54941;52.220;104.306;2023-09-07T02:26:17;4.40;;;2.40;;
68140;SDS011;54941;52.220;104.306;2023-09-07T02:28:45;5.22;;;2.00;;
68140;SDS011;54941;52.220;104.306;2023-09-07T02:31:11;3.60;;;2.40;;
68140;SDS011;54941;52.220;104.306;2023-09-07T02:33:37;4.50;;;2.42;;
68140;SDS011;54941;52.220;104.306;2023-09-07T02:36:04;3.92;;;2.30;;
68140;SDS011;54941;52.220;104.306;2023-09-07T02:38:30;12.57;;;5.22;;
68140;SDS011;54941;52.220;104.306;2023-09-07T02:40:57;4.50;;;2.38;;
68140;SDS011;54941;52.220;104.306;2023-09-07T02:43:24;3.38;;;2.30;;
68140;SDS011;54941;52.220;104.306;2023-09-07T02:45:52;3.70;;;2.10;;
68140;SDS011;54941;52.220;104.306;2023-09-07T02:48:18;4.03;;;2.30;;
68140;SDS011;54941;52.220;104.306;2023-09-07T02:50:44;4.75;;;1.88;;
68140;SDS011;54941;52.220;104.306;2023-09-07T02:53:11;4.65;;;1.73;;
68140;SDS011;54941;52.220;104.306;2023-09-07T02:55:39;2.83;;;1.73;;
68140;SDS011;54941;52.220;104.306;2023-09-07T02:58:05;3.85;;;2.00;;
68140;SDS011;54941;52.220;104.306;2023-09-07T03:00:31;2.92;;;1.90;;
68140;SDS011;54941;52.220;104.306;2023-09-07T03:02:59;4.70;;;2.67;;
68140;SDS011;54941;52.220;104.306;2023-09-07T03:05:26;3.50;;;2.20;;
68140;SDS011;54941;52.220;104.306;2023-09-07T03:07:53;5.80;;;2.10;;
68140;SDS011;54941;52.220;104.306;2023-09-07T03:10:19;3.17;;;2.22;;
68140;SDS011;54941;52.220;104.306;2023-09-07T03:12:46;3.25;;;1.80;;
68140;SDS011;54941;52.220;104.306;2023-09-07T03:15:12;3.65;;;2.10;;
68140;SDS011;54941;52.220;104.306;2023-09-07T03:17:39;4.95;;;1.65;;
68140;SDS011;54941;52.220;104.306;2023-09-07T03:20:07;4.18;;;2.05;;
68140;SDS011;54941;52.220;104.306;2023-09-07T03:22:34;3.30;;;2.17;;
68140;SDS011;54941;52.220;104.306;2023-09-07T03:25:01;4.65;;;2.22;;
68140;SDS011;54941;52.220;104.306;2023-09-07T03:27:30;3.40;;;2.13;;
68140;SDS011;54941;52.220;104.306;2023-09-07T03:29:56;3.30;;;2.10;;
68140;SDS011;54941;52.220;104.306;2023-09-07T03:32:23;2.65;;;1.77;;
68140;SDS011;54941;52.220;104.306;2023-09-07T03:34:49;2.80;;;2.03;;
68140;SDS011;54941;52.220;104.306;2023-09-07T03:37:17;3.65;;;1.90;;
68140;SDS011;54941;52.220;104.306;2023-09-07T03:39:43;4.07;;;2.40;;
68140;SDS011;54941;52.220;104.306;2023-09-07T03:42:09;4.68;;;2.50;;
68140;SDS011;54941;52.220;104.306;2023-09-07T03:44:35;3.30;;;2.22;;
68140;SDS011;54941;52.220;104.306;2023-09-07T03:47:02;3.35;;;2.00;;
68140;SDS011;54941;52.220;104.306;2023-09-07T03:49:28;2.67;;;1.85;;
68140;SDS011;54941;52.220;104.306;2023-09-07T03:51:54;4.32;;;2.30;;
68140;SDS011;54941;52.220;104.306;2023-09-07T03:54:22;5.57;;;2.72;;
68140;SDS011;54941;52.220;104.306;2023-09-07T03:56:48;3.60;;;2.45;;
68140;SDS011;54941;52.220;104.306;2023-09-07T03:59:15;3.85;;;2.40;;
68140;SDS011;54941;52.220;104.306;2023-09-07T04:01:41;4.05;;;2.60;;
68140;SDS011;54941;52.220;104.306;2023-09-07T04:04:07;4.57;;;2.53;;
68140;SDS011;54941;52.220;104.306;2023-09-07T04:06:34;3.30;;;2.25;;
68140;SDS011;54941;52.220;104.306;2023-09-07T04:09:00;3.90;;;2.45;;
68140;SDS011;54941;52.220;104.306;2023-09-07T04:11:28;3.60;;;2.30;;
68140;SDS011;54941;52.220;104.306;2023-09-07T04:13:54;4.82;;;2.35;;
68140;SDS011;54941;52.220;104.306;2023-09-07T04:16:20;3.38;;;2.35;;
68140;SDS011;54941;52.220;104.306;2023-09-07T04:18:46;6.05;;;2.67;;
68140;SDS011;54941;52.220;104.306;2023-09-07T04:21:13;3.50;;;2.55;;
68140;SDS011;54941;52.220;104.306;2023-09-07T04:23:39;4.63;;;2.80;;
68140;SDS011;54941;52.220;104.306;2023-09-07T04:26:08;5.55;;;2.97;;
68140;SDS011;54941;52.220;104.306;2023-09-07T04:28:37;5.90;;;3.50;;
68140;SDS011;54941;52.220;104.306;2023-09-07T04:31:04;7.45;;;3.35;;
68140;SDS011;54941;52.220;104.306;2023-09-07T04:33:31;6.07;;;3.25;;
68140;SDS011;54941;52.220;104.306;2023-09-07T04:35:58;6.25;;;3.67;;
68140;SDS011;54941;52.220;104.306;2023-09-07T04:38:32;5.85;;;3.30;;
68140;SDS011;54941;52.220;104.306;2023-09-07T04:41:05;7.25;;;3.90;;
68140;SDS011;54941;52.220;104.306;2023-09-07T04:43:32;6.38;;;3.50;;
68140;SDS011;54941;52.220;104.306;2023-09-07T04:45:59;6.68;;;3.65;;
68140;SDS011;54941;52.220;104.306;2023-09-07T04:48:26;6.15;;;3.47;;
68140;SDS011;54941;52.220;104.306;2023-09-07T04:50:57;5.85;;;3.70;;
68140;SDS011;54941;52.220;104.306;2023-09-07T04:53:23;6.93;;;3.60;;
68140;SDS011;54941;52.220;104.306;2023-09-07T04:55:50;8.38;;;3.58;;
68140;SDS011;54941;52.220;104.306;2023-09-07T04:58:16;8.70;;;3.97;;
68140;SDS011;54941;52.220;104.306;2023-09-07T05:00:42;8.52;;;3.42;;
68140;SDS011;54941;52.220;104.306;2023-09-07T05:03:10;5.03;;;3.20;;
68140;SDS011;54941;52.220;104.306;2023-09-07T05:05:36;6.63;;;3.78;;
68140;SDS011;54941;52.220;104.306;2023-09-07T05:08:03;9.60;;;3.50;;
68140;SDS011;54941;52.220;104.306;2023-09-07T05:10:30;5.50;;;2.97;;
68140;SDS011;54941;52.220;104.306;2023-09-07T05:12:58;6.57;;;2.90;;
68140;SDS011;54941;52.220;104.306;2023-09-07T05:15:24;4.40;;;2.90;;
68140;SDS011;54941;52.220;104.306;2023-09-07T05:17:51;5.40;;;2.47;;
68140;SDS011;54941;52.220;104.306;2023-09-07T05:20:18;5.55;;;2.90;;
68140;SDS011;54941;52.220;104.306;2023-09-07T05:22:45;5.30;;;3.15;;
68140;SDS011;54941;52.220;104.306;2023-09-07T05:25:11;4.22;;;2.80;;
68140;SDS011;54941;52.220;104.306;2023-09-07T05:27:38;5.30;;;2.55;;
68140;SDS011;54941;52.220;104.306;2023-09-07T05:30:05;4.03;;;2.25;;
68140;SDS011;54941;52.220;104.306;2023-09-07T05:32:33;4.00;;;2.38;;
68140;SDS011;54941;52.220;104.306;2023-09-07T05:34:59;7.25;;;2.50;;
68140;SDS011;54941;52.220;104.306;2023-09-07T05:37:27;4.15;;;2.30;;
68140;SDS011;54941;52.220;104.306;2023-09-07T05:39:53;3.80;;;2.30;;
68140;SDS011;54941;52.220;104.306;2023-09-07T05:42:19;3.47;;;2.03;;
68140;SDS011;54941;52.220;104.306;2023-09-07T05:44:46;5.20;;;2.10;;
68140;SDS011;54941;52.220;104.306;2023-09-07T05:47:12;3.38;;;1.73;;
68140;SDS011;54941;52.220;104.306;2023-09-07T05:49:38;3.20;;;2.13;;
68140;SDS011;54941;52.220;104.306;2023-09-07T05:52:05;3.85;;;1.90;;
68140;SDS011;54941;52.220;104.306;2023-09-07T05:54:32;3.97;;;2.10;;
68140;SDS011;54941;52.220;104.306;2023-09-07T05:56:59;5.32;;;3.38;;
68140;SDS011;54941;52.220;104.306;2023-09-07T05:59:25;7.65;;;3.20;;
68140;SDS011;54941;52.220;104.306;2023-09-07T06:01:51;4.65;;;2.70;;
68140;SDS011;54941;52.220;104.306;2023-09-07T06:04:18;4.00;;;2.42;;
68140;SDS011;54941;52.220;104.306;2023-09-07T06:06:44;5.18;;;2.10;;
68140;SDS011;54941;52.220;104.306;2023-09-07T06:09:11;3.17;;;1.98;;
68140;SDS011;54941;52.220;104.306;2023-09-07T06:11:38;3.42;;;2.13;;
68140;SDS011;54941;52.220;104.306;2023-09-07T06:14:05;5.63;;;2.10;;
68140;SDS011;54941;52.220;104.306;2023-09-07T06:16:31;5.95;;;2.50;;
68140;SDS011;54941;52.220;104.306;2023-09-07T06:18:57;5.25;;;2.47;;
68140;SDS011;54941;52.220;104.306;2023-09-07T06:21:23;4.53;;;2.47;;
68140;SDS011;54941;52.220;104.306;2023-09-07T06:23:50;3.83;;;2.35;;
68140;SDS011;54941;52.220;104.306;2023-09-07T06:26:16;2.83;;;2.20;;
68140;SDS011;54941;52.220;104.306;2023-09-07T06:28:44;4.43;;;2.22;;
68140;SDS011;54941;52.220;104.306;2023-09-07T06:31:10;3.13;;;2.13;;
68140;SDS011;54941;52.220;104.306;2023-09-07T06:33:36;3.50;;;2.10;;
68140;SDS011;54941;52.220;104.306;2023-09-07T06:36:03;3.53;;;2.08;;
68140;SDS011;54941;52.220;104.306;2023-09-07T06:38:29;3.45;;;2.20;;
68140;SDS011;54941;52.220;104.306;2023-09-07T06:40:55;5.78;;;2.10;;
68140;SDS011;54941;52.220;104.306;2023-09-07T06:43:22;4.18;;;1.98;;
68140;SDS011;54941;52.220;104.306;2023-09-07T06:45:50;5.85;;;2.45;;
68140;SDS011;54941;52.220;104.306;2023-09-07T06:48:16;3.05;;;2.00;;
68140;SDS011;54941;52.220;104.306;2023-09-07T06:50:42;4.55;;;2.17;;
68140;SDS011;54941;52.220;104.306;2023-09-07T06:53:09;4.30;;;2.00;;
68140;SDS011;54941;52.220;104.306;2023-09-07T06:55:35;3.00;;;1.60;;
68140;SDS011;54941;52.220;104.306;2023-09-07T06:58:01;2.55;;;1.90;;
68140;SDS011;54941;52.220;104.306;2023-09-07T07:00:28;2.95;;;1.70;;
68140;SDS011;54941;52.220;104.306;2023-09-07T07:02:55;2.63;;;1.75;;
68140;SDS011;54941;52.220;104.306;2023-09-07T07:05:22;3.50;;;2.30;;
68140;SDS011;54941;52.220;104.306;2023-09-07T07:07:48;3.75;;;2.25;;
68140;SDS011;54941;52.220;104.306;2023-09-07T07:10:14;6.20;;;3.00;;
68140;SDS011;54941;52.220;104.306;2023-09-07T07:12:41;6.60;;;3.63;;
68140;SDS011;54941;52.220;104.306;2023-09-07T07:15:07;8.73;;;3.53;;
68140;SDS011;54941;52.220;104.306;2023-09-07T07:17:34;6.78;;;3.55;;
68140;SDS011;54941;52.220;104.306;2023-09-07T07:20:02;5.90;;;3.40;;
68140;SDS011;54941;52.220;104.306;2023-09-07T07:22:30;7.25;;;3.55;;
68140;SDS011;54941;52.220;104.306;2023-09-07T07:24:56;6.40;;;3.42;;
68140;SDS011;54941;52.220;104.306;2023-09-07T07:27:23;6.18;;;3.65;;
68140;SDS011;54941;52.220;104.306;2023-09-07T07:29:50;4.45;;;2.70;;
68140;SDS011;54941;52.220;104.306;2023-09-07T07:32:16;4.63;;;2.25;;
68140;SDS011;54941;52.220;104.306;2023-09-07T07:34:43;4.38;;;2.40;;
68140;SDS011;54941;52.220;104.306;2023-09-07T07:37:10;3.15;;;2.13;;
68140;SDS011;54941;52.220;104.306;2023-09-07T07:39:37;5.53;;;2.92;;
68140;SDS011;54941;52.220;104.306;2023-09-07T07:42:03;5.43;;;2.70;;
68140;SDS011;54941;52.220;104.306;2023-09-07T07:44:30;3.47;;;2.30;;
68140;SDS011;54941;52.220;104.306;2023-09-07T07:46:56;4.00;;;2.10;;
68140;SDS011;54941;52.220;104.306;2023-09-07T07:49:22;3.78;;;2.40;;
68140;SDS011;54941;52.220;104.306;2023-09-07T07:51:48;3.25;;;2.10;;
68140;SDS011;54941;52.220;104.306;2023-09-07T07:54:16;3.05;;;1.75;;
68140;SDS011;54941;52.220;104.306;2023-09-07T07:56:42;3.88;;;1.90;;
68140;SDS011;54941;52.220;104.306;2023-09-07T07:59:09;3.20;;;2.08;;
68140;SDS011;54941;52.220;104.306;2023-09-07T08:01:35;3.28;;;2.08;;
68140;SDS011;54941;52.220;104.306;2023-09-07T08:04:01;3.65;;;1.95;;
68140;SDS011;54941;52.220;104.306;2023-09-07T08:06:27;3.30;;;2.13;;
68140;SDS011;54941;52.220;104.306;2023-09-07T08:08:54;3.03;;;2.15;;
68140;SDS011;54941;52.220;104.306;2023-09-07T08:11:21;3.97;;;2.40;;
68140;SDS011;54941;52.220;104.306;2023-09-07T08:13:48;5.13;;;3.10;;
68140;SDS011;54941;52.220;104.306;2023-09-07T08:16:14;6.68;;;3.42;;
68140;SDS011;54941;52.220;104.306;2023-09-07T08:18:40;5.28;;;3.17;;
68140;SDS011;54941;52.220;104.306;2023-09-07T08:21:07;9.23;;;3.95;;
68140;SDS011;54941;52.220;104.306;2023-09-07T08:23:33;6.80;;;3.55;;
68140;SDS011;54941;52.220;104.306;2023-09-07T08:25:59;7.50;;;3.25;;
68140;SDS011;54941;52.220;104.306;2023-09-07T08:28:27;5.13;;;3.05;;
68140;SDS011;54941;52.220;104.306;2023-09-07T08:30:53;6.85;;;3.00;;
68140;SDS011;54941;52.220;104.306;2023-09-07T08:33:20;6.07;;;3.13;;
68140;SDS011;54941;52.220;104.306;2023-09-07T08:35:49;5.97;;;3.78;;
68140;SDS011;54941;52.220;104.306;2023-09-07T08:38:17;7.35;;;3.67;;
68140;SDS011;54941;52.220;104.306;2023-09-07T08:40:43;6.90;;;3.05;;
68140;SDS011;54941;52.220;104.306;2023-09-07T08:43:10;6.97;;;3.75;;
68140;SDS011;54941;52.220;104.306;2023-09-07T08:45:40;5.75;;;3.47;;
68140;SDS011;54941;52.220;104.306;2023-09-07T08:48:11;6.28;;;3.58;;
68140;SDS011;54941;52.220;104.306;2023-09-07T08:50:40;9.10;;;3.30;;
68140;SDS011;54941;52.220;104.306;2023-09-07T08:53:07;7.90;;;3.50;;
68140;SDS011;54941;52.220;104.306;2023-09-07T08:55:34;5.38;;;3.08;;
68140;SDS011;54941;52.220;104.306;2023-09-07T08:58:00;5.50;;;3.22;;
68140;SDS011;54941;52.220;104.306;2023-09-07T09:00:27;6.63;;;3.22;;
68140;SDS011;54941;52.220;104.306;2023-09-07T09:02:55;7.40;;;3.30;;
68140;SDS011;54941;52.220;104.306;2023-09-07T09:05:22;4.60;;;2.80;;
68140;SDS011;54941;52.220;104.306;2023-09-07T09:07:49;4.90;;;2.75;;
68140;SDS011;54941;52.220;104.306;2023-09-07T09:10:25;4.75;;;2.58;;
68140;SDS011;54941;52.220;104.306;2023-09-07T09:12:52;4.25;;;2.47;;
68140;SDS011;54941;52.220;104.306;2023-09-07T09:15:18;5.70;;;2.80;;
68140;SDS011;54941;52.220;104.306;2023-09-07T09:17:44;5.45;;;2.78;;
68140;SDS011;54941;52.220;104.306;2023-09-07T09:20:21;5.10;;;2.53;;
68140;SDS011;54941;52.220;104.306;2023-09-07T09:22:49;6.30;;;3.20;;
68140;SDS011;54941;52.220;104.306;2023-09-07T09:25:17;4.57;;;2.50;;
68140;SDS011;54941;52.220;104.306;2023-09-07T09:27:45;4.65;;;2.70;;
68140;SDS011;54941;52.220;104.306;2023-09-07T09:30:11;5.57;;;2.90;;
68140;SDS011;54941;52.220;104.306;2023-09-07T09:32:39;4.05;;;2.55;;
68140;SDS011;54941;52.220;104.306;2023-09-07T09:35:05;3.97;;;2.50;;
68140;SDS011;54941;52.220;104.306;2023-09-07T09:37:33;4.13;;;2.28;;
68140;SDS011;54941;52.220;104.306;2023-09-07T09:40:00;4.97;;;2.33;;
68140;SDS011;54941;52.220;104.306;2023-09-07T09:42:29;3.85;;;2.58;;
68140;SDS011;54941;52.220;104.306;2023-09-07T09:44:55;5.47;;;2.65;;
68140;SDS011;54941;52.220;104.306;2023-09-07T09:47:23;5.40;;;3.13;;
68140;SDS011;54941;52.220;104.306;2023-09-07T09:49:51;4.93;;;2.65;;
68140;SDS011;54941;52.220;104.306;2023-09-07T09:52:17;3.92;;;2.33;;
68140;SDS011;54941;52.220;104.306;2023-09-07T09:54:46;6.03;;;2.53;;
68140;SDS011;54941;52.220;104.306;2023-09-07T09:57:13;6.90;;;2.67;;
68140;SDS011;54941;52.220;104.306;2023-09-07T09:59:39;10.93;;;3.13;;
68140;SDS011;54941;52.220;104.306;2023-09-07T10:02:05;5.15;;;2.70;;
68140;SDS011;54941;52.220;104.306;2023-09-07T10:04:33;4.50;;;2.80;;
68140;SDS011;54941;52.220;104.306;2023-09-07T10:06:59;5.80;;;2.65;;
68140;SDS011;54941;52.220;104.306;2023-09-07T10:09:28;5.43;;;2.88;;
68140;SDS011;54941;52.220;104.306;2023-09-07T10:11:57;5.07;;;3.50;;
68140;SDS011;54941;52.220;104.306;2023-09-07T10:14:25;5.32;;;3.10;;
68140;SDS011;54941;52.220;104.306;2023-09-07T10:16:52;7.72;;;3.10;;
68140;SDS011;54941;52.220;104.306;2023-09-07T10:19:19;5.80;;;3.10;;
68140;SDS011;54941;52.220;104.306;2023-09-07T10:21:46;9.93;;;4.68;;
68140;SDS011;54941;52.220;104.306;2023-09-07T10:24:23;7.07;;;4.38;;
68140;SDS011;54941;52.220;104.306;2023-09-07T10:26:57;8.43;;;3.85;;
68140;SDS011;54941;52.220;104.306;2023-09-07T10:29:24;9.65;;;4.07;;
68140;SDS011;54941;52.220;104.306;2023-09-07T10:31:51;8.73;;;4.03;;
68140;SDS011;54941;52.220;104.306;2023-09-07T10:34:17;8.18;;;4.03;;
68140;SDS011;54941;52.220;104.306;2023-09-07T10:36:44;11.25;;;4.68;;
68140;SDS011;54941;52.220;104.306;2023-09-07T10:39:11;6.07;;;4.13;;
68140;SDS011;54941;52.220;104.306;2023-09-07T10:41:40;8.02;;;3.58;;
68140;SDS011;54941;52.220;104.306;2023-09-07T10:44:08;10.95;;;5.45;;
68140;SDS011;54941;52.220;104.306;2023-09-07T10:46:35;11.65;;;5.32;;
68140;SDS011;54941;52.220;104.306;2023-09-07T10:49:03;7.57;;;4.25;;
68140;SDS011;54941;52.220;104.306;2023-09-07T10:51:32;10.80;;;4.97;;
68140;SDS011;54941;52.220;104.306;2023-09-07T10:53:58;8.43;;;4.20;;
68140;SDS011;54941;52.220;104.306;2023-09-07T10:56:24;7.88;;;3.90;;
68140;SDS011;54941;52.220;104.306;2023-09-07T10:58:53;7.20;;;3.55;;
68140;SDS011;54941;52.220;104.306;2023-09-07T11:01:21;10.20;;;3.90;;
68140;SDS011;54941;52.220;104.306;2023-09-07T11:03:47;10.48;;;4.07;;
68140;SDS011;54941;52.220;104.306;2023-09-07T11:06:14;7.25;;;3.88;;
68140;SDS011;54941;52.220;104.306;2023-09-07T11:08:43;8.05;;;3.97;;
68140;SDS011;54941;52.220;104.306;2023-09-07T11:11:09;9.57;;;4.07;;
68140;SDS011;54941;52.220;104.306;2023-09-07T11:13:35;6.63;;;3.67;;
68140;SDS011;54941;52.220;104.306;2023-09-07T11:16:02;8.88;;;3.88;;
68140;SDS011;54941;52.220;104.306;2023-09-07T11:18:33;8.02;;;3.45;;
68140;SDS011;54941;52.220;104.306;2023-09-07T11:21:00;5.43;;;3.42;;
68140;SDS011;54941;52.220;104.306;2023-09-07T11:23:26;7.88;;;3.38;;
68140;SDS011;54941;52.220;104.306;2023-09-07T11:25:54;5.63;;;3.60;;
68140;SDS011;54941;52.220;104.306;2023-09-07T11:28:21;6.65;;;4.35;;
68140;SDS011;54941;52.220;104.306;2023-09-07T11:30:50;7.50;;;4.43;;
68140;SDS011;54941;52.220;104.306;2023-09-07T11:33:17;7.40;;;4.38;;
68140;SDS011;54941;52.220;104.306;2023-09-07T11:35:45;7.30;;;3.72;;
68140;SDS011;54941;52.220;104.306;2023-09-07T11:38:12;6.80;;;3.75;;
68140;SDS011;54941;52.220;104.306;2023-09-07T11:40:39;11.65;;;4.35;;
68140;SDS011;54941;52.220;104.306;2023-09-07T11:43:06;8.95;;;4.90;;
68140;SDS011;54941;52.220;104.306;2023-09-07T11:45:32;10.93;;;5.05;;
68140;SDS011;54941;52.220;104.306;2023-09-07T11:47:58;10.75;;;5.15;;
68140;SDS011;54941;52.220;104.306;2023-09-07T11:50:25;9.65;;;4.97;;
68140;SDS011;54941;52.220;104.306;2023-09-07T11:52:53;11.55;;;6.07;;
68140;SDS011;54941;52.220;104.306;2023-09-07T11:55:19;13.52;;;7.78;;
68140;SDS011;54941;52.220;104.306;2023-09-07T11:57:45;14.60;;;8.40;;
68140;SDS011;54941;52.220;104.306;2023-09-07T12:00:12;12.95;;;6.93;;
68140;SDS011;54941;52.220;104.306;2023-09-07T12:02:39;8.45;;;5.22;;
68140;SDS011;54941;52.220;104.306;2023-09-07T12:05:05;9.50;;;5.90;;
68140;SDS011;54941;52.220;104.306;2023-09-07T12:07:32;11.50;;;6.60;;
68140;SDS011;54941;52.220;104.306;2023-09-07T12:10:00;13.73;;;7.50;;
68140;SDS011;54941;52.220;104.306;2023-09-07T12:12:27;12.70;;;8.18;;
68140;SDS011;54941;52.220;104.306;2023-09-07T12:14:53;15.75;;;8.40;;
68140;SDS011;54941;52.220;104.306;2023-09-07T12:17:20;15.45;;;8.75;;
68140;SDS011;54941;52.220;104.306;2023-09-07T12:19:46;14.73;;;8.45;;
68140;SDS011;54941;52.220;104.306;2023-09-07T12:22:12;15.32;;;9.00;;
68140;SDS011;54941;52.220;104.306;2023-09-07T12:24:39;17.30;;;9.35;;
68140;SDS011;54941;52.220;104.306;2023-09-07T12:27:06;15.38;;;9.30;;
68140;SDS011;54941;52.220;104.306;2023-09-07T12:29:33;11.73;;;7.32;;
68140;SDS011;54941;52.220;104.306;2023-09-07T12:31:59;9.27;;;6.30;;
68140;SDS011;54941;52.220;104.306;2023-09-07T12:34:25;12.15;;;6.82;;
68140;SDS011;54941;52.220;104.306;2023-09-07T12:36:51;13.65;;;7.47;;
68140;SDS011;54941;52.220;104.306;2023-09-07T12:39:18;17.48;;;11.65;;
68140;SDS011;54941;52.220;104.306;2023-09-07T12:41:44;15.55;;;9.73;;
68140;SDS011;54941;52.220;104.306;2023-09-07T12:44:13;14.95;;;8.50;;
68140;SDS011;54941;52.220;104.306;2023-09-07T12:46:40;16.55;;;10.93;;
68140;SDS011;54941;52.220;104.306;2023-09-07T12:49:06;12.40;;;9.02;;
68140;SDS011;54941;52.220;104.306;2023-09-07T12:51:32;12.43;;;8.02;;
68140;SDS011;54941;52.220;104.306;2023-09-07T12:53:58;12.88;;;8.90;;
68140;SDS011;54941;52.220;104.306;2023-09-07T12:56:25;19.52;;;11.68;;
68140;SDS011;54941;52.220;104.306;2023-09-07T12:58:51;22.42;;;12.38;;
68140;SDS011;54941;52.220;104.306;2023-09-07T13:01:19;18.20;;;12.13;;
68140;SDS011;54941;52.220;104.306;2023-09-07T13:03:45;21.85;;;14.80;;
68140;SDS011;54941;52.220;104.306;2023-09-07T13:06:11;16.35;;;10.98;;
68140;SDS011;54941;52.220;104.306;2023-09-07T13:08:38;14.60;;;9.18;;
68140;SDS011;54941;52.220;104.306;2023-09-07T13:11:04;16.38;;;10.77;;
68140;SDS011;54941;52.220;104.306;2023-09-07T13:13:31;21.73;;;13.02;;
68140;SDS011;54941;52.220;104.306;2023-09-07T13:15:57;23.30;;;13.82;;
68140;SDS011;54941;52.220;104.306;2023-09-07T13:18:25;19.10;;;12.57;;
68140;SDS011;54941;52.220;104.306;2023-09-07T13:20:51;22.00;;;12.45;;
68140;SDS011;54941;52.220;104.306;2023-09-07T13:23:18;14.10;;;10.25;;
68140;SDS011;54941;52.220;104.306;2023-09-07T13:25:44;15.63;;;10.07;;
68140;SDS011;54941;52.220;104.306;2023-09-07T13:28:10;13.02;;;10.00;;
68140;SDS011;54941;52.220;104.306;2023-09-07T13:30:37;17.58;;;11.23;;
68140;SDS011;54941;52.220;104.306;2023-09-07T13:33:03;15.55;;;10.93;;
68140;SDS011;54941;52.220;104.306;2023-09-07T13:35:31;15.02;;;10.82;;
68140;SDS011;54941;52.220;104.306;2023-09-07T13:37:57;15.85;;;9.98;;
68140;SDS011;54941;52.220;104.306;2023-09-07T13:40:24;14.88;;;9.68;;
68140;SDS011;54941;52.220;104.306;2023-09-07T13:42:50;12.73;;;9.38;;
68140;SDS011;54941;52.220;104.306;2023-09-07T13:45:16;18.00;;;10.43;;
68140;SDS011;54941;52.220;104.306;2023-09-07T13:47:42;27.17;;;12.55;;
68140;SDS011;54941;52.220;104.306;2023-09-07T13:50:09;18.95;;;11.82;;
68140;SDS011;54941;52.220;104.306;2023-09-07T13:52:36;18.95;;;10.82;;
68140;SDS011;54941;52.220;104.306;2023-09-07T13:55:03;16.17;;;9.48;;
68140;SDS011;54941;52.220;104.306;2023-09-07T13:57:30;17.58;;;12.95;;
68140;SDS011;54941;52.220;104.306;2023-09-07T13:59:56;22.88;;;16.35;;
68140;SDS011;54941;52.220;104.306;2023-09-07T14:02:23;21.75;;;14.90;;
68140;SDS011;54941;52.220;104.306;2023-09-07T14:04:49;17.98;;;12.48;;
68140;SDS011;54941;52.220;104.306;2023-09-07T14:07:15;17.45;;;11.77;;
68140;SDS011;54941;52.220;104.306;2023-09-07T14:09:43;23.83;;;16.83;;
68140;SDS011;54941;52.220;104.306;2023-09-07T14:12:09;28.05;;;20.30;;
68140;SDS011;54941;52.220;104.306;2023-09-07T14:14:36;22.50;;;14.98;;
68140;SDS011;54941;52.220;104.306;2023-09-07T14:17:03;29.20;;;23.55;;